sensor_id;sensor_type;location;lat;lon;timestamp;pressure;altitude;pressure_sealevel;temperature;humidity
3917;BME280;1973;50.518;7.318;2023-02-13T00:01:51;103026.13;;;9.57;100.00
3917;BME280;1973;50.518;7.318;2023-02-13T00:04:18;103025.38;;;9.55;100.00
3917;BME280;1973;50.518;7.318;2023-02-13T00:06:44;103029.16;;;9.54;100.00
3917;BME280;1973;50.518;7.318;2023-02-13T00:09:13;103027.44;;;9.53;100.00
3917;BME280;1973;50.518;7.318;2023-02-13T00:11:40;103025.38;;;9.55;100.00
3917;BME280;1973;50.518;7.318;2023-02-13T00:14:06;103020.75;;;9.55;100.00
3917;BME280;1973;50.518;7.318;2023-02-13T00:16:33;103016.44;;;9.53;100.00
3917;BME280;1973;50.518;7.318;2023-02-13T00:18:59;103020.06;;;9.53;100.00
3917;BME280;1973;50.518;7.318;2023-02-13T00:21:26;103010.22;;;9.51;100.00
3917;BME280;1973;50.518;7.318;2023-02-13T00:23:52;103023.09;;;9.50;100.00
3917;BME280;1973;50.518;7.318;2023-02-13T00:26:19;103018.78;;;9.48;100.00
3917;BME280;1973;50.518;7.318;2023-02-13T00:28:45;103020.50;;;9.49;100.00
3917;BME280;1973;50.518;7.318;2023-02-13T00:31:15;103016.72;;;9.50;100.00
3917;BME280;1973;50.518;7.318;2023-02-13T00:33:42;103020.97;;;9.44;100.00
3917;BME280;1973;50.518;7.318;2023-02-13T00:36:20;103023.56;;;9.46;100.00
3917;BME280;1973;50.518;7.318;2023-02-13T00:38:47;103016.34;;;9.45;100.00
3917;BME280;1973;50.518;7.318;2023-02-13T00:41:15;103008.97;;;9.45;100.00
3917;BME280;1973;50.518;7.318;2023-02-13T00:43:45;103008.97;;;9.45;100.00
3917;BME280;1973;50.518;7.318;2023-02-13T00:46:12;103011.53;;;9.47;100.00
3917;BME280;1973;50.518;7.318;2023-02-13T00:48:39;103008.78;;;9.47;100.00
3917;BME280;1973;50.518;7.318;2023-02-13T00:51:06;103007.06;;;9.46;100.00
3917;BME280;1973;50.518;7.318;2023-02-13T00:53:33;103005.16;;;9.46;100.00
3917;BME280;1973;50.518;7.318;2023-02-13T00:56:01;103003.47;;;9.45;100.00
3917;BME280;1973;50.518;7.318;2023-02-13T00:58:28;103009.97;;;9.44;100.00
3917;BME280;1973;50.518;7.318;2023-02-13T01:00:55;103003.91;;;9.41;100.00
3917;BME280;1973;50.518;7.318;2023-02-13T01:03:22;102999.84;;;9.45;100.00
3917;BME280;1973;50.518;7.318;2023-02-13T01:05:49;103006.34;;;9.44;100.00
3917;BME280;1973;50.518;7.318;2023-02-13T01:08:17;103013.59;;;9.45;100.00
3917;BME280;1973;50.518;7.318;2023-02-13T01:10:45;103008.22;;;9.43;100.00
3917;BME280;1973;50.518;7.318;2023-02-13T01:13:13;102995.34;;;9.44;100.00
3917;BME280;1973;50.518;7.318;2023-02-13T01:15:40;103003.78;;;9.42;100.00
3917;BME280;1973;50.518;7.318;2023-02-13T01:18:08;102995.66;;;9.41;100.00
3917;BME280;1973;50.518;7.318;2023-02-13T01:20:36;103000.16;;;9.42;100.00
3917;BME280;1973;50.518;7.318;2023-02-13T01:23:03;102990.03;;;9.42;100.00
3917;BME280;1973;50.518;7.318;2023-02-13T01:25:30;102989.84;;;9.44;100.00
3917;BME280;1973;50.518;7.318;2023-02-13T01:27:57;102976.56;;;9.39;100.00
3917;BME280;1973;50.518;7.318;2023-02-13T01:30:23;102986.53;;;9.40;100.00
3917;BME280;1973;50.518;7.318;2023-02-13T01:32:50;102983.94;;;9.39;100.00
3917;BME280;1973;50.518;7.318;2023-02-13T01:35:16;102985.69;;;9.40;100.00
3917;BME280;1973;50.518;7.318;2023-02-13T01:37:43;102984.66;;;9.41;100.00
3917;BME280;1973;50.518;7.318;2023-02-13T01:40:12;102983.94;;;9.39;100.00
3917;BME280;1973;50.518;7.318;2023-02-13T01:42:39;102985.84;;;9.38;100.00
3917;BME280;1973;50.518;7.318;2023-02-13T01:45:20;102981.50;;;9.36;100.00
3917;BME280;1973;50.518;7.318;2023-02-13T01:47:59;102976.50;;;9.31;100.00
3917;BME280;1973;50.518;7.318;2023-02-13T01:50:33;102974.56;;;9.32;100.00
3917;BME280;1973;50.518;7.318;2023-02-13T01:56:02;102965.53;;;9.21;100.00
3917;BME280;1973;50.518;7.318;2023-02-13T01:58:33;102968.84;;;9.25;100.00
3917;BME280;1973;50.518;7.318;2023-02-13T02:01:01;102958.72;;;9.25;100.00
3917;BME280;1973;50.518;7.318;2023-02-13T02:03:38;102964.53;;;9.22;100.00
3917;BME280;1973;50.518;7.318;2023-02-13T02:06:11;102963.66;;;9.22;100.00
3917;BME280;1973;50.518;7.318;2023-02-13T02:08:39;102965.41;;;9.23;100.00
3917;BME280;1973;50.518;7.318;2023-02-13T02:11:11;102966.25;;;9.23;100.00
3917;BME280;1973;50.518;7.318;2023-02-13T02:13:40;102966.25;;;9.23;100.00
3917;BME280;1973;50.518;7.318;2023-02-13T02:16:06;102967.41;;;9.21;100.00
3917;BME280;1973;50.518;7.318;2023-02-13T02:18:33;102976.38;;;9.23;100.00
3917;BME280;1973;50.518;7.318;2023-02-13T02:32:19;102970.16;;;9.21;100.00
3917;BME280;1973;50.518;7.318;2023-02-13T02:37:35;102974.97;;;9.19;100.00
3917;BME280;1973;50.518;7.318;2023-02-13T02:40:22;102976.09;;;9.16;100.00
3917;BME280;1973;50.518;7.318;2023-02-13T02:45:26;102981.31;;;9.19;100.00
3917;BME280;1973;50.518;7.318;2023-02-13T02:47:58;102980.16;;;9.22;100.00
3917;BME280;1973;50.518;7.318;2023-02-13T02:50:51;102977.53;;;9.20;100.00
3917;BME280;1973;50.518;7.318;2023-02-13T02:53:22;102972.91;;;9.21;100.00
3917;BME280;1973;50.518;7.318;2023-02-13T02:56:29;102975.81;;;9.19;100.00
3917;BME280;1973;50.518;7.318;2023-02-13T02:59:08;102977.41;;;9.22;100.00
3917;BME280;1973;50.518;7.318;2023-02-13T03:01:56;102981.31;;;9.19;100.00
3917;BME280;1973;50.518;7.318;2023-02-13T03:04:45;102983.03;;;9.20;100.00
3917;BME280;1973;50.518;7.318;2023-02-13T03:07:32;102980.78;;;9.16;100.00
3917;BME280;1973;50.518;7.318;2023-02-13T03:10:01;102985.09;;;9.18;100.00
3917;BME280;1973;50.518;7.318;2023-02-13T03:12:53;102982.34;;;9.18;100.00
3917;BME280;1973;50.518;7.318;2023-02-13T03:15:43;102974.09;;;9.18;100.00
3917;BME280;1973;50.518;7.318;2023-02-13T03:18:33;102972.53;;;9.16;100.00
3917;BME280;1973;50.518;7.318;2023-02-13T03:27:33;102975.41;;;9.14;100.00
3917;BME280;1973;50.518;7.318;2023-02-13T03:30:39;102976.41;;;9.13;100.00
3917;BME280;1973;50.518;7.318;2023-02-13T03:33:21;102974.41;;;9.15;100.00
3917;BME280;1973;50.518;7.318;2023-02-13T03:38:54;102981.59;;;9.16;100.00
3917;BME280;1973;50.518;7.318;2023-02-13T03:41:26;102996.38;;;9.15;100.00
3917;BME280;1973;50.518;7.318;2023-02-13T03:46:30;102996.53;;;9.14;100.00
3917;BME280;1973;50.518;7.318;2023-02-13T03:49:01;103001.16;;;9.13;100.00
3917;BME280;1973;50.518;7.318;2023-02-13T03:51:53;103006.41;;;9.07;100.00
3917;BME280;1973;50.518;7.318;2023-02-13T03:54:44;103008.03;;;9.00;100.00
3917;BME280;1973;50.518;7.318;2023-02-13T03:57:32;103008.31;;;8.97;100.00
3917;BME280;1973;50.518;7.318;2023-02-13T04:00:21;103004.28;;;8.91;100.00
3917;BME280;1973;50.518;7.318;2023-02-13T04:02:53;103006.34;;;8.89;100.00
3917;BME280;1973;50.518;7.318;2023-02-13T04:05:25;103004.03;;;8.85;100.00
3917;BME280;1973;50.518;7.318;2023-02-13T04:07:54;102999.72;;;8.82;100.00
3917;BME280;1973;50.518;7.318;2023-02-13T04:10:23;103002.28;;;8.84;100.00
3917;BME280;1973;50.518;7.318;2023-02-13T04:13:02;103002.16;;;8.85;100.00
3917;BME280;1973;50.518;7.318;2023-02-13T04:15:37;103004.03;;;8.85;100.00
3917;BME280;1973;50.518;7.318;2023-02-13T04:18:28;103006.63;;;8.86;100.00
3917;BME280;1973;50.518;7.318;2023-02-13T04:20:56;103008.34;;;8.87;100.00
3917;BME280;1973;50.518;7.318;2023-02-13T04:23:23;103008.34;;;8.87;100.00
3917;BME280;1973;50.518;7.318;2023-02-13T04:25:51;103003.47;;;8.81;100.00
3917;BME280;1973;50.518;7.318;2023-02-13T04:28:19;103010.13;;;8.78;100.00
3917;BME280;1973;50.518;7.318;2023-02-13T04:30:46;103001.16;;;8.76;100.00
3917;BME280;1973;50.518;7.318;2023-02-13T04:33:12;103007.81;;;8.74;100.00
3917;BME280;1973;50.518;7.318;2023-02-13T04:35:39;103004.78;;;8.77;100.00
3917;BME280;1973;50.518;7.318;2023-02-13T04:38:05;103006.25;;;8.71;100.00
3917;BME280;1973;50.518;7.318;2023-02-13T04:40:32;103012.44;;;8.73;100.00
3917;BME280;1973;50.518;7.318;2023-02-13T04:42:59;103002.78;;;8.69;100.00
3917;BME280;1973;50.518;7.318;2023-02-13T04:45:26;103003.34;;;8.73;100.00
3917;BME280;1973;50.518;7.318;2023-02-13T04:47:54;103006.09;;;8.73;100.00
3917;BME280;1973;50.518;7.318;2023-02-13T04:50:22;103009.00;;;8.71;100.00
3917;BME280;1973;50.518;7.318;2023-02-13T04:52:53;103007.13;;;8.72;100.00
3917;BME280;1973;50.518;7.318;2023-02-13T04:55:22;103000.31;;;8.66;100.00
3917;BME280;1973;50.518;7.318;2023-02-13T04:57:51;102997.72;;;8.65;100.00
3917;BME280;1973;50.518;7.318;2023-02-13T05:00:18;102993.09;;;8.65;100.00
3917;BME280;1973;50.518;7.318;2023-02-13T05:02:44;102990.34;;;8.65;100.00
3917;BME280;1973;50.518;7.318;2023-02-13T05:05:11;102992.53;;;8.62;100.00
3917;BME280;1973;50.518;7.318;2023-02-13T05:07:37;102990.97;;;8.59;100.00
3917;BME280;1973;50.518;7.318;2023-02-13T05:10:04;102986.78;;;8.55;100.00
3917;BME280;1973;50.518;7.318;2023-02-13T05:12:31;102984.47;;;8.51;100.00
3917;BME280;1973;50.518;7.318;2023-02-13T05:14:57;102991.69;;;8.52;100.00
3917;BME280;1973;50.518;7.318;2023-02-13T05:17:23;102989.25;;;8.49;100.00
3917;BME280;1973;50.518;7.318;2023-02-13T05:19:54;102988.25;;;8.50;100.00
3917;BME280;1973;50.518;7.318;2023-02-13T05:22:21;102993.88;;;8.48;100.00
3917;BME280;1973;50.518;7.318;2023-02-13T05:25:07;102991.56;;;8.44;100.00
3917;BME280;1973;50.518;7.318;2023-02-13T05:27:33;102991.56;;;8.44;100.00
3917;BME280;1973;50.518;7.318;2023-02-13T05:30:00;103001.84;;;8.42;100.00
3917;BME280;1973;50.518;7.318;2023-02-13T05:32:26;102992.00;;;8.39;100.00
3917;BME280;1973;50.518;7.318;2023-02-13T05:34:53;102994.91;;;8.38;100.00
3917;BME280;1973;50.518;7.318;2023-02-13T05:37:19;102993.47;;;8.34;100.00
3917;BME280;1973;50.518;7.318;2023-02-13T05:39:46;102997.22;;;8.32;100.00
3917;BME280;1973;50.518;7.318;2023-02-13T05:42:12;102994.63;;;8.31;100.00
3917;BME280;1973;50.518;7.318;2023-02-13T05:44:38;102996.34;;;8.32;100.00
3917;BME280;1973;50.518;7.318;2023-02-13T05:47:05;102997.09;;;8.34;100.00
3917;BME280;1973;50.518;7.318;2023-02-13T05:49:31;103000.97;;;8.31;100.00
3917;BME280;1973;50.518;7.318;2023-02-13T05:51:58;102995.47;;;8.31;100.00
3917;BME280;1973;50.518;7.318;2023-02-13T05:54:24;102990.00;;;8.31;100.00
3917;BME280;1973;50.518;7.318;2023-02-13T05:56:51;102995.47;;;8.31;100.00
3917;BME280;1973;50.518;7.318;2023-02-13T05:59:17;103000.25;;;8.29;100.00
3917;BME280;1973;50.518;7.318;2023-02-13T06:01:43;102994.88;;;8.28;100.00
3917;BME280;1973;50.518;7.318;2023-02-13T06:04:10;103002.28;;;8.27;100.00
3917;BME280;1973;50.518;7.318;2023-02-13T06:06:36;103002.28;;;8.27;100.00
3917;BME280;1973;50.518;7.318;2023-02-13T06:09:03;103001.53;;;8.25;100.00
3917;BME280;1973;50.518;7.318;2023-02-13T06:11:29;103001.69;;;8.24;100.00
3917;BME280;1973;50.518;7.318;2023-02-13T06:13:56;103003.56;;;8.23;100.00
3917;BME280;1973;50.518;7.318;2023-02-13T06:16:22;102993.59;;;8.22;100.00
3917;BME280;1973;50.518;7.318;2023-02-13T06:18:49;103005.56;;;8.21;100.00
3917;BME280;1973;50.518;7.318;2023-02-13T06:21:15;103005.56;;;8.21;100.00
3917;BME280;1973;50.518;7.318;2023-02-13T06:23:42;103008.63;;;8.18;100.00
3917;BME280;1973;50.518;7.318;2023-02-13T06:26:09;102998.34;;;8.20;100.00
3917;BME280;1973;50.518;7.318;2023-02-13T06:28:35;103010.50;;;8.18;100.00
3917;BME280;1973;50.518;7.318;2023-02-13T06:31:02;103016.16;;;8.16;100.00
3917;BME280;1973;50.518;7.318;2023-02-13T06:33:29;103012.97;;;8.11;100.00
3917;BME280;1973;50.518;7.318;2023-02-13T06:35:56;103012.22;;;8.09;100.00
3917;BME280;1973;50.518;7.318;2023-02-13T06:38:23;103023.50;;;8.06;100.00
3917;BME280;1973;50.518;7.318;2023-02-13T06:40:50;103017.44;;;8.03;100.00
3917;BME280;1973;50.518;7.318;2023-02-13T06:43:16;103021.75;;;7.96;100.00
3917;BME280;1973;50.518;7.318;2023-02-13T06:45:44;103022.19;;;7.91;100.00
3917;BME280;1973;50.518;7.318;2023-02-13T06:48:12;103020.03;;;7.85;100.00
3917;BME280;1973;50.518;7.318;2023-02-13T06:50:39;103028.97;;;7.77;100.00
3917;BME280;1973;50.518;7.318;2023-02-13T06:53:05;103026.94;;;7.70;100.00
3917;BME280;1973;50.518;7.318;2023-02-13T06:55:31;103029.78;;;7.59;100.00
3917;BME280;1973;50.518;7.318;2023-02-13T06:57:58;103030.78;;;7.48;100.00
3917;BME280;1973;50.518;7.318;2023-02-13T07:00:24;103035.50;;;7.37;100.00
3917;BME280;1973;50.518;7.318;2023-02-13T07:02:52;103038.34;;;7.25;100.00
3917;BME280;1973;50.518;7.318;2023-02-13T07:05:19;103027.50;;;7.14;100.00
3917;BME280;1973;50.518;7.318;2023-02-13T07:07:45;103030.34;;;7.03;100.00
3917;BME280;1973;50.518;7.318;2023-02-13T07:10:13;103025.69;;;6.94;100.00
3917;BME280;1973;50.518;7.318;2023-02-13T07:12:39;103032.97;;;6.84;100.00
3917;BME280;1973;50.518;7.318;2023-02-13T07:15:06;103033.81;;;6.75;100.00
3917;BME280;1973;50.518;7.318;2023-02-13T07:17:33;103029.13;;;6.66;100.00
3917;BME280;1973;50.518;7.318;2023-02-13T07:20:00;103034.41;;;6.58;100.00
3917;BME280;1973;50.518;7.318;2023-02-13T07:22:26;103031.34;;;6.51;100.00
3917;BME280;1973;50.518;7.318;2023-02-13T07:24:53;103037.25;;;6.47;100.00
3917;BME280;1973;50.518;7.318;2023-02-13T07:27:19;103035.03;;;6.41;100.00
3917;BME280;1973;50.518;7.318;2023-02-13T07:29:46;103037.16;;;6.37;100.00
3917;BME280;1973;50.518;7.318;2023-02-13T07:32:12;103034.81;;;6.32;100.00
3917;BME280;1973;50.518;7.318;2023-02-13T07:34:39;103033.22;;;6.30;100.00
3917;BME280;1973;50.518;7.318;2023-02-13T07:37:26;103033.59;;;6.25;100.00
3917;BME280;1973;50.518;7.318;2023-02-13T07:39:53;103023.69;;;6.24;100.00
3917;BME280;1973;50.518;7.318;2023-02-13T07:42:19;103023.81;;;6.23;100.00
3917;BME280;1973;50.518;7.318;2023-02-13T07:44:46;103034.88;;;6.21;100.00
3917;BME280;1973;50.518;7.318;2023-02-13T07:47:12;103025.94;;;6.19;100.00
3917;BME280;1973;50.518;7.318;2023-02-13T07:49:39;103036.88;;;6.19;100.00
3917;BME280;1973;50.518;7.318;2023-02-13T07:52:05;103033.16;;;6.20;100.00
3917;BME280;1973;50.518;7.318;2023-02-13T07:54:32;103033.88;;;6.22;100.00
3917;BME280;1973;50.518;7.318;2023-02-13T07:56:58;103031.16;;;6.22;100.00
3917;BME280;1973;50.518;7.318;2023-02-13T07:59:25;103034.63;;;6.24;100.00
3917;BME280;1973;50.518;7.318;2023-02-13T08:01:51;103033.59;;;6.25;100.00
3917;BME280;1973;50.518;7.318;2023-02-13T08:04:18;103026.28;;;6.26;100.00
3917;BME280;1973;50.518;7.318;2023-02-13T08:06:44;103030.59;;;6.28;100.00
3917;BME280;1973;50.518;7.318;2023-02-13T08:09:19;103030.38;;;6.31;100.00
3917;BME280;1973;50.518;7.318;2023-02-13T08:12:07;103034.69;;;6.34;100.00
3917;BME280;1973;50.518;7.318;2023-02-13T08:14:34;103028.94;;;6.37;100.00
3917;BME280;1973;50.518;7.318;2023-02-13T08:17:01;103036.75;;;6.42;100.00
3917;BME280;1973;50.518;7.318;2023-02-13T08:19:28;103043.56;;;6.47;100.00
3917;BME280;1973;50.518;7.318;2023-02-13T08:21:55;103039.44;;;6.53;100.00
3917;BME280;1973;50.518;7.318;2023-02-13T08:24:21;103043.38;;;6.60;100.00
3917;BME280;1973;50.518;7.318;2023-02-13T08:26:48;103037.06;;;6.69;100.00
3917;BME280;1973;50.518;7.318;2023-02-13T08:29:14;103034.69;;;6.75;100.00
3917;BME280;1973;50.518;7.318;2023-02-13T08:31:41;103036.59;;;6.84;100.00
3917;BME280;1973;50.518;7.318;2023-02-13T08:34:07;103043.13;;;6.93;100.00
3917;BME280;1973;50.518;7.318;2023-02-13T08:36:34;103036.69;;;7.04;100.00
3917;BME280;1973;50.518;7.318;2023-02-13T08:39:01;103035.72;;;7.14;100.00
3917;BME280;1973;50.518;7.318;2023-02-13T08:41:27;103033.88;;;7.24;100.00
3917;BME280;1973;50.518;7.318;2023-02-13T08:43:54;103038.53;;;7.33;100.00
3917;BME280;1973;50.518;7.318;2023-02-13T08:46:20;103034.69;;;7.46;100.00
3917;BME280;1973;50.518;7.318;2023-02-13T08:48:47;103040.91;;;7.57;100.00
3917;BME280;1973;50.518;7.318;2023-02-13T08:51:13;103037.31;;;7.66;100.00
3917;BME280;1973;50.518;7.318;2023-02-13T08:53:40;103047.28;;;7.77;100.00
3917;BME280;1973;50.518;7.318;2023-02-13T08:56:08;103034.44;;;7.87;100.00
3917;BME280;1973;50.518;7.318;2023-02-13T08:58:34;103048.59;;;7.92;100.00
3917;BME280;1973;50.518;7.318;2023-02-13T09:01:06;103034.75;;;8.03;100.00
3917;BME280;1973;50.518;7.318;2023-02-13T09:03:33;103036.50;;;8.04;100.00
3917;BME280;1973;50.518;7.318;2023-02-13T09:06:01;103038.53;;;8.12;100.00
3917;BME280;1973;50.518;7.318;2023-02-13T09:08:28;103037.06;;;8.17;100.00
3917;BME280;1973;50.518;7.318;2023-02-13T09:10:59;103040.25;;;8.22;100.00
3917;BME280;1973;50.518;7.318;2023-02-13T09:13:33;103041.53;;;8.28;100.00
3917;BME280;1973;50.518;7.318;2023-02-13T09:16:01;103035.06;;;8.29;100.00
3917;BME280;1973;50.518;7.318;2023-02-13T09:18:27;103051.41;;;8.30;100.00
3917;BME280;1973;50.518;7.318;2023-02-13T09:21:02;103049.53;;;8.31;100.00
3917;BME280;1973;50.518;7.318;2023-02-13T09:23:31;103045.03;;;8.40;100.00
3917;BME280;1973;50.518;7.318;2023-02-13T09:25:59;103040.28;;;8.42;100.00
3917;BME280;1973;50.518;7.318;2023-02-13T09:28:31;103050.50;;;8.40;100.00
3917;BME280;1973;50.518;7.318;2023-02-13T09:30:57;103052.97;;;8.43;100.00
3917;BME280;1973;50.518;7.318;2023-02-13T09:33:25;103049.66;;;8.49;100.00
3917;BME280;1973;50.518;7.318;2023-02-13T09:35:52;103048.34;;;8.53;100.00
3917;BME280;1973;50.518;7.318;2023-02-13T09:38:18;103050.94;;;8.64;100.00
3917;BME280;1973;50.518;7.318;2023-02-13T09:43:16;103056.97;;;8.77;100.00
3917;BME280;1973;50.518;7.318;2023-02-13T09:45:45;103055.78;;;8.89;100.00
3917;BME280;1973;50.518;7.318;2023-02-13T09:48:28;103052.72;;;8.92;100.00
3917;BME280;1973;50.518;7.318;2023-02-13T09:50:55;103057.72;;;9.06;100.00
3917;BME280;1973;50.518;7.318;2023-02-13T09:53:25;103055.41;;;9.11;100.00
3917;BME280;1973;50.518;7.318;2023-02-13T09:55:59;103052.78;;;9.19;100.00
3917;BME280;1973;50.518;7.318;2023-02-13T09:58:48;103061.03;;;9.19;100.00
3917;BME280;1973;50.518;7.318;2023-02-13T10:01:28;103058.88;;;9.13;100.00
3917;BME280;1973;50.518;7.318;2023-02-13T10:07:38;103043.38;;;9.49;100.00
3917;BME280;1973;50.518;7.318;2023-02-13T10:18:05;103041.66;;;10.29;100.00
3917;BME280;1973;50.518;7.318;2023-02-13T10:20:38;103048.97;;;10.38;100.00
3917;BME280;1973;50.518;7.318;2023-02-13T10:23:21;103042.06;;;10.34;100.00
3917;BME280;1973;50.518;7.318;2023-02-13T10:25:56;103038.28;;;10.35;100.00
3917;BME280;1973;50.518;7.318;2023-02-13T10:31:18;103038.41;;;10.51;100.00
3917;BME280;1973;50.518;7.318;2023-02-13T10:33:49;103033.91;;;10.50;100.00
3917;BME280;1973;50.518;7.318;2023-02-13T10:36:21;103033.91;;;10.93;100.00
3917;BME280;1973;50.518;7.318;2023-02-13T10:41:24;103026.50;;;11.02;100.00
3917;BME280;1973;50.518;7.318;2023-02-13T10:44:20;103025.06;;;11.15;100.00
3917;BME280;1973;50.518;7.318;2023-02-13T10:47:17;103018.44;;;11.00;100.00
3917;BME280;1973;50.518;7.318;2023-02-13T10:49:50;103023.72;;;11.28;100.00
3917;BME280;1973;50.518;7.318;2023-02-13T10:56:16;103027.34;;;11.70;100.00
3917;BME280;1973;50.518;7.318;2023-02-13T10:58:26;103019.72;;;11.56;100.00
3917;BME280;1973;50.518;7.318;2023-02-13T11:01:01;103012.66;;;11.61;100.00
3917;BME280;1973;50.518;7.318;2023-02-13T11:03:29;103007.88;;;11.80;100.00
3917;BME280;1973;50.518;7.318;2023-02-13T11:05:57;103012.56;;;11.87;100.00
3917;BME280;1973;50.518;7.318;2023-02-13T11:08:31;103010.16;;;11.84;100.00
3917;BME280;1973;50.518;7.318;2023-02-13T11:10:58;103003.09;;;11.98;100.00
3917;BME280;1973;50.518;7.318;2023-02-13T11:13:28;103001.19;;;11.98;100.00
3917;BME280;1973;50.518;7.318;2023-02-13T11:18:32;102988.28;;;12.07;100.00
3917;BME280;1973;50.518;7.318;2023-02-13T11:21:06;102980.69;;;12.41;100.00
3917;BME280;1973;50.518;7.318;2023-02-13T11:23:41;102983.75;;;12.62;100.00
3917;BME280;1973;50.518;7.318;2023-02-13T11:26:26;102987.56;;;12.61;100.00
3917;BME280;1973;50.518;7.318;2023-02-13T11:28:56;102976.00;;;12.42;100.00
3917;BME280;1973;50.518;7.318;2023-02-13T11:31:30;102969.56;;;12.82;100.00
3917;BME280;1973;50.518;7.318;2023-02-13T11:33:59;102975.22;;;12.96;100.00
3917;BME280;1973;50.518;7.318;2023-02-13T11:36:28;102965.16;;;13.03;100.00
3917;BME280;1973;50.518;7.318;2023-02-13T11:39:11;102959.38;;;13.29;100.00
3917;BME280;1973;50.518;7.318;2023-02-13T11:41:44;102945.47;;;13.68;96.82
3917;BME280;1973;50.518;7.318;2023-02-13T11:44:29;102953.16;;;13.58;88.22
3917;BME280;1973;50.518;7.318;2023-02-13T11:46:58;102934.75;;;13.65;93.10
3917;BME280;1973;50.518;7.318;2023-02-13T11:49:30;102949.38;;;13.51;88.29
3917;BME280;1973;50.518;7.318;2023-02-13T11:52:05;102937.22;;;13.83;86.96
3917;BME280;1973;50.518;7.318;2023-02-13T11:54:35;102927.44;;;14.18;86.20
3917;BME280;1973;50.518;7.318;2023-02-13T11:57:20;102928.31;;;14.33;78.48
3917;BME280;1973;50.518;7.318;2023-02-13T11:59:50;102933.13;;;14.39;78.82
3917;BME280;1973;50.518;7.318;2023-02-13T12:04:48;102917.50;;;14.60;76.66
3917;BME280;1973;50.518;7.318;2023-02-13T12:07:21;102914.94;;;14.59;73.50
3917;BME280;1973;50.518;7.318;2023-02-13T12:09:56;102912.97;;;14.45;72.37
3917;BME280;1973;50.518;7.318;2023-02-13T12:15:29;102892.91;;;15.01;66.94
3917;BME280;1973;50.518;7.318;2023-02-13T12:23:47;102896.28;;;15.33;62.36
3917;BME280;1973;50.518;7.318;2023-02-13T12:26:40;102893.41;;;15.41;61.18
3917;BME280;1973;50.518;7.318;2023-02-13T12:29:25;102894.09;;;15.64;60.04
3917;BME280;1973;50.518;7.318;2023-02-13T12:32:25;102884.13;;;15.91;58.83
3917;BME280;1973;50.518;7.318;2023-02-13T12:35:04;102880.19;;;15.85;59.15
3917;BME280;1973;50.518;7.318;2023-02-13T12:38:03;102867.81;;;16.09;59.52
3917;BME280;1973;50.518;7.318;2023-02-13T12:43:49;102856.97;;;16.48;56.78
3917;BME280;1973;50.518;7.318;2023-02-13T12:46:30;102864.22;;;16.43;55.67
3917;BME280;1973;50.518;7.318;2023-02-13T12:57:23;102847.16;;;16.87;54.55
3917;BME280;1973;50.518;7.318;2023-02-13T13:02:46;102832.22;;;16.94;54.21
3917;BME280;1973;50.518;7.318;2023-02-13T13:25:03;102803.28;;;17.63;50.65
3917;BME280;1973;50.518;7.318;2023-02-13T13:27:41;102803.50;;;17.74;50.07
3917;BME280;1973;50.518;7.318;2023-02-13T13:30:20;102806.75;;;17.84;49.02
3917;BME280;1973;50.518;7.318;2023-02-13T13:33:35;102803.28;;;17.82;49.57
3917;BME280;1973;50.518;7.318;2023-02-13T13:36:06;102804.16;;;17.76;48.45
3917;BME280;1973;50.518;7.318;2023-02-13T13:38:55;102794.09;;;17.88;49.27
3917;BME280;1973;50.518;7.318;2023-02-13T13:41:42;102799.00;;;18.13;47.81
3917;BME280;1973;50.518;7.318;2023-02-13T13:46:49;102792.09;;;18.35;49.12
3917;BME280;1973;50.518;7.318;2023-02-13T13:52:09;102793.16;;;18.34;47.57
3917;BME280;1973;50.518;7.318;2023-02-13T13:54:36;102782.66;;;18.36;48.57
3917;BME280;1973;50.518;7.318;2023-02-13T13:57:04;102776.59;;;18.52;48.16
3917;BME280;1973;50.518;7.318;2023-02-13T14:07:56;102764.63;;;18.32;47.66
3917;BME280;1973;50.518;7.318;2023-02-13T14:31:30;102761.59;;;18.40;47.17
3917;BME280;1973;50.518;7.318;2023-02-13T14:34:02;102758.56;;;18.48;48.51
3917;BME280;1973;50.518;7.318;2023-02-13T14:36:31;102759.88;;;18.39;48.27
3917;BME280;1973;50.518;7.318;2023-02-13T14:39:02;102751.34;;;18.27;47.63
3917;BME280;1973;50.518;7.318;2023-02-13T14:44:19;102748.28;;;18.42;48.06
3917;BME280;1973;50.518;7.318;2023-02-13T14:46:49;102738.69;;;18.25;48.14
3917;BME280;1973;50.518;7.318;2023-02-13T14:49:25;102740.22;;;18.21;46.74
3917;BME280;1973;50.518;7.318;2023-02-13T14:51:55;102742.78;;;18.16;47.95
3917;BME280;1973;50.518;7.318;2023-02-13T14:57:19;102733.13;;;18.25;46.99
3917;BME280;1973;50.518;7.318;2023-02-13T14:59:50;102726.38;;;18.45;47.56
3917;BME280;1973;50.518;7.318;2023-02-13T15:02:23;102732.44;;;18.36;47.68
3917;BME280;1973;50.518;7.318;2023-02-13T15:05:05;102724.25;;;18.47;46.63
3917;BME280;1973;50.518;7.318;2023-02-13T15:07:35;102727.19;;;18.66;47.33
3917;BME280;1973;50.518;7.318;2023-02-13T15:10:16;102736.16;;;18.74;46.99
3917;BME280;1973;50.518;7.318;2023-02-13T15:12:58;102738.41;;;18.46;46.72
3917;BME280;1973;50.518;7.318;2023-02-13T15:15:31;102731.78;;;18.34;47.42
3917;BME280;1973;50.518;7.318;2023-02-13T15:18:08;102726.78;;;18.49;46.81
3917;BME280;1973;50.518;7.318;2023-02-13T15:20:39;102726.34;;;18.65;47.51
3917;BME280;1973;50.518;7.318;2023-02-13T15:23:20;102722.00;;;18.76;46.18
3917;BME280;1973;50.518;7.318;2023-02-13T15:25:47;102725.06;;;18.61;47.74
3917;BME280;1973;50.518;7.318;2023-02-13T15:28:22;102726.78;;;18.56;47.05
3917;BME280;1973;50.518;7.318;2023-02-13T15:31:02;102726.78;;;18.62;46.45
3917;BME280;1973;50.518;7.318;2023-02-13T15:33:40;102719.84;;;18.71;46.58
3917;BME280;1973;50.518;7.318;2023-02-13T15:36:16;102723.28;;;18.73;46.18
3917;BME280;1973;50.518;7.318;2023-02-13T15:38:43;102718.94;;;18.77;47.18
3917;BME280;1973;50.518;7.318;2023-02-13T15:41:12;102715.03;;;18.91;46.89
3917;BME280;1973;50.518;7.318;2023-02-13T15:43:46;102712.81;;;19.00;46.81
3917;BME280;1973;50.518;7.318;2023-02-13T15:46:24;102723.09;;;19.06;45.59
3917;BME280;1973;50.518;7.318;2023-02-13T15:48:53;102718.59;;;19.05;47.14
3917;BME280;1973;50.518;7.318;2023-02-13T15:51:21;102714.88;;;19.18;47.31
3917;BME280;1973;50.518;7.318;2023-02-13T15:53:52;102718.41;;;19.31;47.03
3917;BME280;1973;50.518;7.318;2023-02-13T15:56:20;102715.97;;;19.41;47.17